Air Navigation Services of Czech Republic
Airport: LKCV Updated:  25.03.2019 21:00:07  UTC
 METAR LKCV 25.03. 21:00 ...
METAR LKCV 252100Z 31011KT 9999 FEW020 OVC035 04/02 Q1019 NOSIG RMK BLU BLU=
 TAF LKCV 25.03. 17:00 ...
TAF LKCV 251700Z 2518/2618 31012KT 9999 SCT020 BKN035      TEMPO 2518/2520 30018G30KT 6000 SHRASN SCT017TCU BKN030      PROB30 TEMPO 2518/2520 4000 TSRASN SCT015CB BKN025=